createdAt,value
2023-02-09T05:27:30.430Z,9.57
2023-02-09T05:30:01.610Z,10.37
2023-02-09T05:32:29.637Z,11.00
2023-02-09T05:34:57.632Z,11.30
2023-02-09T05:37:25.593Z,10.10
2023-02-09T05:39:54.048Z,10.20
2023-02-09T05:42:21.963Z,10.10
2023-02-09T05:44:52.397Z,9.80
2023-02-09T05:47:22.650Z,10.30
2023-02-09T05:49:50.632Z,10.07
2023-02-09T05:52:19.331Z,10.77
2023-02-09T05:54:49.129Z,9.63
2023-02-09T05:57:17.914Z,10.07
2023-02-09T05:59:46.162Z,11.50
2023-02-09T06:02:15.705Z,8.93
2023-02-09T06:04:43.821Z,9.93
2023-02-09T06:07:12.441Z,12.80
2023-02-09T06:09:43.901Z,11.10
2023-02-09T06:12:21.951Z,11.10
2023-02-09T06:14:50.270Z,9.00
2023-02-09T06:17:23.657Z,11.60
2023-02-09T06:19:54.559Z,11.83
2023-02-09T06:22:31.829Z,9.67
2023-02-09T06:25:07.339Z,9.77
2023-02-09T06:27:36.131Z,10.87
2023-02-09T06:30:04.856Z,9.80
2023-02-09T06:32:36.128Z,10.73
2023-02-09T06:35:04.244Z,10.80
2023-02-09T06:37:34.248Z,10.03
2023-02-09T06:40:02.278Z,11.20
2023-02-09T06:42:43.893Z,9.20
2023-02-09T06:45:14.592Z,10.07
2023-02-09T06:47:44.480Z,10.23
2023-02-09T06:50:14.331Z,9.13
2023-02-09T06:52:42.572Z,10.50
2023-02-09T06:55:11.619Z,10.80
2023-02-09T06:57:39.983Z,14.67
2023-02-09T07:00:10.621Z,26.17
2023-02-09T07:02:39.278Z,24.87
2023-02-09T07:05:19.523Z,16.20
2023-02-09T07:07:47.854Z,20.37
2023-02-09T07:10:17.909Z,11.60
2023-02-09T07:12:48.942Z,22.23
2023-02-09T07:15:17.953Z,29.30
2023-02-09T07:17:52.140Z,13.93
2023-02-09T07:20:23.751Z,13.97
2023-02-09T07:22:51.867Z,14.87
2023-02-09T07:25:34.764Z,34.07
2023-02-09T07:28:03.477Z,27.83
2023-02-09T07:30:45.896Z,20.10
2023-02-09T07:33:14.189Z,12.90
2023-02-09T07:35:44.376Z,11.60
2023-02-09T07:38:12.720Z,11.00
2023-02-09T07:40:46.092Z,13.00
2023-02-09T07:43:18.314Z,14.57
2023-02-09T07:46:00.711Z,14.63
2023-02-09T07:48:28.804Z,14.30
2023-02-09T07:51:01.962Z,12.23
2023-02-09T07:53:33.150Z,11.40
2023-02-09T07:56:12.765Z,14.13
2023-02-09T07:58:43.137Z,14.33
2023-02-09T08:01:19.019Z,17.33
2023-02-09T08:03:48.433Z,17.87
2023-02-09T08:06:51.989Z,17.63
2023-02-09T08:09:49.661Z,17.50
2023-02-09T08:13:01.079Z,14.03
2023-02-09T16:16:56.189Z,10.50
2023-02-09T16:19:24.279Z,13.00
2023-02-09T16:21:56.300Z,12.00
2023-02-09T16:24:29.856Z,10.90
2023-02-09T16:26:59.984Z,11.53
2023-02-09T16:29:27.895Z,10.20
2023-02-09T16:31:57.334Z,12.50
2023-02-09T16:34:25.268Z,12.07
2023-02-09T16:36:53.192Z,10.93
2023-02-09T16:39:22.736Z,11.10
2023-02-09T16:41:51.463Z,11.63
2023-02-09T16:44:22.835Z,10.77
2023-02-09T16:46:53.276Z,11.80
2023-02-09T16:49:32.323Z,12.60
2023-02-09T16:52:04.370Z,13.70
2023-02-09T16:57:59.781Z,11.50
2023-02-09T17:00:37.048Z,13.63
2023-02-09T17:03:14.125Z,11.97
2023-02-09T17:05:46.404Z,13.80
2023-02-09T17:08:19.577Z,12.93
2023-02-09T17:10:49.203Z,12.10
2023-02-09T17:13:20.540Z,13.03
2023-02-09T17:15:50.125Z,13.20
2023-02-09T17:18:20.591Z,14.40
2023-02-09T17:20:54.359Z,16.00
2023-02-09T17:23:24.409Z,13.70
2023-02-09T17:25:55.054Z,14.43
2023-02-09T17:28:23.159Z,13.27
2023-02-09T17:30:51.967Z,12.43
2023-02-09T17:33:25.114Z,12.87
2023-02-09T17:36:24.784Z,11.63
2023-02-09T17:38:44.618Z,11.20
2023-02-09T17:41:16.079Z,12.27
2023-02-09T17:43:44.147Z,9.87
2023-02-09T17:46:12.827Z,11.57
2023-02-09T17:48:40.814Z,14.40
2023-02-09T17:51:20.054Z,15.60
2023-02-09T17:53:48.856Z,9.93
2023-02-09T17:56:17.022Z,9.63
2023-02-09T17:58:45.333Z,9.57
2023-02-09T18:01:26.168Z,11.93
2023-02-09T18:03:54.878Z,12.00
2023-02-09T18:06:33.435Z,9.47
2023-02-09T18:09:01.904Z,9.97
2023-02-09T18:11:42.396Z,12.50
2023-02-09T18:14:12.752Z,10.37
2023-02-09T18:16:41.157Z,10.17
2023-02-09T18:19:09.351Z,11.70
2023-02-09T18:21:38.978Z,9.03
2023-02-09T18:24:07.684Z,8.83
2023-02-09T18:26:35.584Z,11.27
2023-02-09T18:29:03.521Z,10.67
2023-02-09T18:31:31.529Z,10.90
2023-02-09T18:33:59.490Z,10.10
2023-02-09T18:36:27.441Z,11.00
2023-02-09T18:38:56.710Z,11.00
2023-02-09T18:41:24.696Z,9.27
2023-02-09T18:43:54.257Z,10.17
2023-02-09T18:46:24.486Z,10.80
2023-02-09T18:48:52.452Z,10.33
2023-02-09T18:51:20.705Z,9.60
2023-02-09T18:53:50.088Z,9.17
2023-02-09T18:56:42.685Z,9.97
2023-02-09T18:59:11.223Z,10.90
2023-02-09T19:01:49.955Z,9.60
2023-02-09T19:04:28.981Z,10.53
2023-02-09T19:06:57.048Z,10.40
2023-02-09T19:09:25.112Z,8.90
2023-02-09T19:11:54.524Z,9.87
2023-02-09T19:14:40.618Z,10.43
2023-02-09T19:17:10.033Z,11.97
2023-02-09T19:19:38.972Z,9.40
2023-02-09T19:22:07.149Z,9.57
2023-02-09T20:26:15.160Z,11.37
2023-02-09T20:28:46.411Z,12.60
2023-02-09T20:31:43.736Z,10.00
2023-02-09T20:34:30.521Z,9.73
2023-02-09T20:37:05.533Z,12.00
2023-02-09T20:39:46.681Z,10.00
2023-02-09T20:42:50.239Z,10.47
2023-02-09T20:45:50.900Z,10.90
2023-02-09T20:48:24.624Z,11.40
2023-02-09T20:50:57.052Z,11.70
2023-02-09T20:54:04.548Z,11.23
2023-02-09T20:56:55.290Z,13.90
2023-02-09T20:59:52.193Z,9.83
2023-02-09T21:02:48.484Z,9.90
2023-02-09T21:05:53.030Z,10.70
2023-02-09T21:09:06.008Z,10.77
2023-02-09T21:12:05.048Z,12.83
2023-02-09T21:14:42.156Z,11.60
